sensor_id;sensor_type;location;lat;lon;timestamp;P1;durP1;ratioP1;P2;durP2;ratioP2
19235;SDS011;9752;54.270;12.470;2023-06-22T00:04:08;24.77;;;21.70;;
19235;SDS011;9752;54.270;12.470;2023-06-22T00:09:10;24.27;;;21.63;;
19235;SDS011;9752;54.270;12.470;2023-06-22T00:14:12;27.17;;;22.97;;
19235;SDS011;9752;54.270;12.470;2023-06-22T00:19:15;23.13;;;20.60;;
19235;SDS011;9752;54.270;12.470;2023-06-22T00:24:16;26.07;;;22.40;;
19235;SDS011;9752;54.270;12.470;2023-06-22T00:29:18;28.43;;;22.10;;
19235;SDS011;9752;54.270;12.470;2023-06-22T00:34:21;27.57;;;22.90;;
19235;SDS011;9752;54.270;12.470;2023-06-22T00:39:23;34.17;;;25.07;;
19235;SDS011;9752;54.270;12.470;2023-06-22T00:44:25;29.50;;;24.00;;
19235;SDS011;9752;54.270;12.470;2023-06-22T00:49:28;28.50;;;24.60;;
19235;SDS011;9752;54.270;12.470;2023-06-22T00:54:30;29.63;;;25.03;;
19235;SDS011;9752;54.270;12.470;2023-06-22T00:59:31;28.30;;;24.03;;
19235;SDS011;9752;54.270;12.470;2023-06-22T01:04:36;40.30;;;30.67;;
19235;SDS011;9752;54.270;12.470;2023-06-22T01:09:43;53.80;;;39.23;;
19235;SDS011;9752;54.270;12.470;2023-06-22T01:14:50;45.30;;;35.77;;
19235;SDS011;9752;54.270;12.470;2023-06-22T01:20:00;46.13;;;35.97;;
19235;SDS011;9752;54.270;12.470;2023-06-22T01:25:07;46.13;;;36.63;;
19235;SDS011;9752;54.270;12.470;2023-06-22T01:30:13;54.27;;;38.70;;
19235;SDS011;9752;54.270;12.470;2023-06-22T01:35:17;47.17;;;35.10;;
19235;SDS011;9752;54.270;12.470;2023-06-22T01:40:21;41.33;;;33.60;;
19235;SDS011;9752;54.270;12.470;2023-06-22T01:45:27;42.20;;;32.57;;
19235;SDS011;9752;54.270;12.470;2023-06-22T01:50:29;53.73;;;37.23;;
19235;SDS011;9752;54.270;12.470;2023-06-22T01:55:31;47.07;;;34.80;;
19235;SDS011;9752;54.270;12.470;2023-06-22T02:00:35;51.50;;;38.13;;
19235;SDS011;9752;54.270;12.470;2023-06-22T02:05:41;60.80;;;41.63;;
19235;SDS011;9752;54.270;12.470;2023-06-22T02:10:49;46.03;;;36.37;;
19235;SDS011;9752;54.270;12.470;2023-06-22T02:15:55;64.30;;;43.23;;
19235;SDS011;9752;54.270;12.470;2023-06-22T02:20:57;48.40;;;38.83;;
19235;SDS011;9752;54.270;12.470;2023-06-22T02:25:59;42.67;;;34.27;;
19235;SDS011;9752;54.270;12.470;2023-06-22T02:31:03;38.37;;;31.93;;
19235;SDS011;9752;54.270;12.470;2023-06-22T02:36:05;39.10;;;32.30;;
19235;SDS011;9752;54.270;12.470;2023-06-22T02:41:09;56.00;;;40.83;;
19235;SDS011;9752;54.270;12.470;2023-06-22T02:46:14;48.37;;;36.47;;
19235;SDS011;9752;54.270;12.470;2023-06-22T02:51:16;57.63;;;40.60;;
19235;SDS011;9752;54.270;12.470;2023-06-22T02:56:18;49.80;;;40.27;;
19235;SDS011;9752;54.270;12.470;2023-06-22T03:01:27;43.07;;;34.80;;
19235;SDS011;9752;54.270;12.470;2023-06-22T03:06:31;56.13;;;41.73;;
19235;SDS011;9752;54.270;12.470;2023-06-22T03:11:33;44.73;;;36.80;;
19235;SDS011;9752;54.270;12.470;2023-06-22T03:16:36;40.27;;;32.13;;
19235;SDS011;9752;54.270;12.470;2023-06-22T03:21:38;47.50;;;37.10;;
19235;SDS011;9752;54.270;12.470;2023-06-22T03:26:40;40.67;;;33.60;;
19235;SDS011;9752;54.270;12.470;2023-06-22T03:31:43;38.80;;;31.53;;
19235;SDS011;9752;54.270;12.470;2023-06-22T03:36:45;44.10;;;33.30;;
19235;SDS011;9752;54.270;12.470;2023-06-22T03:41:46;41.93;;;32.30;;
19235;SDS011;9752;54.270;12.470;2023-06-22T03:46:49;39.60;;;32.00;;
19235;SDS011;9752;54.270;12.470;2023-06-22T03:51:54;48.53;;;32.77;;
19235;SDS011;9752;54.270;12.470;2023-06-22T03:56:56;38.70;;;30.80;;
19235;SDS011;9752;54.270;12.470;2023-06-22T04:01:59;37.57;;;28.87;;
19235;SDS011;9752;54.270;12.470;2023-06-22T04:07:01;34.07;;;27.43;;
19235;SDS011;9752;54.270;12.470;2023-06-22T04:12:03;40.30;;;28.50;;
19235;SDS011;9752;54.270;12.470;2023-06-22T04:17:07;42.27;;;30.23;;
19235;SDS011;9752;54.270;12.470;2023-06-22T04:22:08;35.33;;;29.40;;
19235;SDS011;9752;54.270;12.470;2023-06-22T04:27:10;32.87;;;26.63;;
19235;SDS011;9752;54.270;12.470;2023-06-22T04:32:13;35.77;;;28.70;;
19235;SDS011;9752;54.270;12.470;2023-06-22T04:37:15;34.63;;;29.03;;
19235;SDS011;9752;54.270;12.470;2023-06-22T04:42:16;35.97;;;30.13;;
19235;SDS011;9752;54.270;12.470;2023-06-22T04:47:19;34.43;;;29.70;;
19235;SDS011;9752;54.270;12.470;2023-06-22T04:52:21;36.57;;;30.03;;
19235;SDS011;9752;54.270;12.470;2023-06-22T04:57:24;29.73;;;25.73;;
19235;SDS011;9752;54.270;12.470;2023-06-22T05:02:33;27.17;;;24.27;;
19235;SDS011;9752;54.270;12.470;2023-06-22T05:07:35;28.20;;;25.17;;
19235;SDS011;9752;54.270;12.470;2023-06-22T05:12:37;26.83;;;24.03;;
19235;SDS011;9752;54.270;12.470;2023-06-22T05:17:40;25.97;;;23.23;;
19235;SDS011;9752;54.270;12.470;2023-06-22T05:22:42;23.70;;;21.23;;
19235;SDS011;9752;54.270;12.470;2023-06-22T05:27:44;22.97;;;20.63;;
19235;SDS011;9752;54.270;12.470;2023-06-22T05:32:47;21.37;;;19.17;;
19235;SDS011;9752;54.270;12.470;2023-06-22T05:37:49;22.53;;;19.50;;
19235;SDS011;9752;54.270;12.470;2023-06-22T05:42:51;21.53;;;18.70;;
19235;SDS011;9752;54.270;12.470;2023-06-22T05:47:54;20.73;;;18.53;;
19235;SDS011;9752;54.270;12.470;2023-06-22T05:52:56;17.40;;;15.67;;
19235;SDS011;9752;54.270;12.470;2023-06-22T05:57:57;17.10;;;15.27;;
19235;SDS011;9752;54.270;12.470;2023-06-22T06:03:00;15.97;;;14.43;;
19235;SDS011;9752;54.270;12.470;2023-06-22T06:08:04;13.60;;;12.20;;
19235;SDS011;9752;54.270;12.470;2023-06-22T06:13:07;13.03;;;11.83;;
19235;SDS011;9752;54.270;12.470;2023-06-22T06:18:10;14.57;;;13.17;;
19235;SDS011;9752;54.270;12.470;2023-06-22T06:23:11;15.67;;;14.27;;
19235;SDS011;9752;54.270;12.470;2023-06-22T06:28:13;11.87;;;10.80;;
19235;SDS011;9752;54.270;12.470;2023-06-22T06:33:16;12.40;;;11.40;;
19235;SDS011;9752;54.270;12.470;2023-06-22T06:38:18;12.77;;;11.67;;
19235;SDS011;9752;54.270;12.470;2023-06-22T06:43:20;12.30;;;11.17;;
19235;SDS011;9752;54.270;12.470;2023-06-22T06:48:23;12.13;;;10.90;;
19235;SDS011;9752;54.270;12.470;2023-06-22T06:53:24;12.90;;;11.90;;
19235;SDS011;9752;54.270;12.470;2023-06-22T06:58:27;11.90;;;11.10;;
19235;SDS011;9752;54.270;12.470;2023-06-22T07:03:30;11.97;;;11.03;;
19235;SDS011;9752;54.270;12.470;2023-06-22T07:08:33;11.63;;;10.87;;
19235;SDS011;9752;54.270;12.470;2023-06-22T07:13:35;12.13;;;11.13;;
19235;SDS011;9752;54.270;12.470;2023-06-22T07:18:40;13.63;;;12.80;;
19235;SDS011;9752;54.270;12.470;2023-06-22T07:23:41;13.03;;;12.30;;
19235;SDS011;9752;54.270;12.470;2023-06-22T07:28:43;13.60;;;12.60;;
19235;SDS011;9752;54.270;12.470;2023-06-22T07:33:46;15.07;;;14.17;;
19235;SDS011;9752;54.270;12.470;2023-06-22T07:38:47;14.40;;;13.47;;
19235;SDS011;9752;54.270;12.470;2023-06-22T07:43:49;14.10;;;13.20;;
19235;SDS011;9752;54.270;12.470;2023-06-22T07:48:52;13.73;;;12.83;;
19235;SDS011;9752;54.270;12.470;2023-06-22T07:53:54;14.77;;;14.10;;
19235;SDS011;9752;54.270;12.470;2023-06-22T07:58:56;14.37;;;13.77;;
19235;SDS011;9752;54.270;12.470;2023-06-22T08:04:00;14.67;;;13.87;;
19235;SDS011;9752;54.270;12.470;2023-06-22T08:09:02;14.47;;;13.53;;
19235;SDS011;9752;54.270;12.470;2023-06-22T08:14:04;15.53;;;14.73;;
19235;SDS011;9752;54.270;12.470;2023-06-22T08:19:07;14.57;;;13.77;;
19235;SDS011;9752;54.270;12.470;2023-06-22T08:24:09;14.70;;;14.10;;
19235;SDS011;9752;54.270;12.470;2023-06-22T08:29:10;15.57;;;14.77;;
19235;SDS011;9752;54.270;12.470;2023-06-22T08:34:13;15.17;;;14.37;;
19235;SDS011;9752;54.270;12.470;2023-06-22T08:39:15;16.10;;;15.40;;
19235;SDS011;9752;54.270;12.470;2023-06-22T08:44:18;16.17;;;15.40;;
19235;SDS011;9752;54.270;12.470;2023-06-22T08:49:22;16.43;;;15.73;;
19235;SDS011;9752;54.270;12.470;2023-06-22T08:54:23;16.40;;;15.43;;
19235;SDS011;9752;54.270;12.470;2023-06-22T08:59:25;16.43;;;15.50;;
19235;SDS011;9752;54.270;12.470;2023-06-22T09:04:28;15.40;;;14.53;;
19235;SDS011;9752;54.270;12.470;2023-06-22T09:09:29;14.80;;;14.10;;
19235;SDS011;9752;54.270;12.470;2023-06-22T09:14:31;15.43;;;14.70;;
19235;SDS011;9752;54.270;12.470;2023-06-22T09:19:34;16.00;;;15.30;;
19235;SDS011;9752;54.270;12.470;2023-06-22T09:24:36;16.53;;;15.80;;
19235;SDS011;9752;54.270;12.470;2023-06-22T09:29:38;15.47;;;14.87;;
19235;SDS011;9752;54.270;12.470;2023-06-22T09:34:41;15.97;;;15.27;;
19235;SDS011;9752;54.270;12.470;2023-06-22T09:39:42;15.53;;;14.83;;
19235;SDS011;9752;54.270;12.470;2023-06-22T09:44:44;15.73;;;15.03;;
19235;SDS011;9752;54.270;12.470;2023-06-22T09:49:47;15.83;;;15.13;;
19235;SDS011;9752;54.270;12.470;2023-06-22T09:54:49;15.37;;;14.67;;
19235;SDS011;9752;54.270;12.470;2023-06-22T09:59:51;16.20;;;15.50;;
19235;SDS011;9752;54.270;12.470;2023-06-22T10:04:54;16.23;;;15.53;;
19235;SDS011;9752;54.270;12.470;2023-06-22T10:09:55;16.77;;;15.80;;
19235;SDS011;9752;54.270;12.470;2023-06-22T10:14:57;16.70;;;15.90;;
19235;SDS011;9752;54.270;12.470;2023-06-22T10:20:00;16.27;;;15.57;;
19235;SDS011;9752;54.270;12.470;2023-06-22T10:25:06;16.30;;;15.50;;
19235;SDS011;9752;54.270;12.470;2023-06-22T10:30:09;16.60;;;15.70;;
19235;SDS011;9752;54.270;12.470;2023-06-22T10:35:14;16.50;;;15.80;;
19235;SDS011;9752;54.270;12.470;2023-06-22T10:40:16;16.53;;;15.67;;
19235;SDS011;9752;54.270;12.470;2023-06-22T10:45:18;16.27;;;15.37;;
19235;SDS011;9752;54.270;12.470;2023-06-22T10:50:21;16.53;;;15.73;;
19235;SDS011;9752;54.270;12.470;2023-06-22T10:55:24;16.10;;;15.13;;
19235;SDS011;9752;54.270;12.470;2023-06-22T11:00:26;16.30;;;15.60;;
19235;SDS011;9752;54.270;12.470;2023-06-22T11:05:29;16.10;;;15.40;;
19235;SDS011;9752;54.270;12.470;2023-06-22T11:10:30;16.67;;;15.90;;
19235;SDS011;9752;54.270;12.470;2023-06-22T11:15:32;16.80;;;16.00;;
19235;SDS011;9752;54.270;12.470;2023-06-22T11:20:35;17.03;;;16.13;;
19235;SDS011;9752;54.270;12.470;2023-06-22T11:25:38;16.10;;;15.30;;
19235;SDS011;9752;54.270;12.470;2023-06-22T11:30:42;16.50;;;15.80;;
19235;SDS011;9752;54.270;12.470;2023-06-22T11:35:45;17.63;;;16.53;;
19235;SDS011;9752;54.270;12.470;2023-06-22T11:40:47;16.57;;;15.87;;
19235;SDS011;9752;54.270;12.470;2023-06-22T11:45:48;16.00;;;15.30;;
19235;SDS011;9752;54.270;12.470;2023-06-22T11:50:52;16.13;;;15.33;;
19235;SDS011;9752;54.270;12.470;2023-06-22T11:55:54;17.00;;;16.20;;
19235;SDS011;9752;54.270;12.470;2023-06-22T12:00:56;16.27;;;15.57;;
19235;SDS011;9752;54.270;12.470;2023-06-22T12:05:59;16.37;;;15.53;;
19235;SDS011;9752;54.270;12.470;2023-06-22T12:11:01;16.07;;;15.20;;
19235;SDS011;9752;54.270;12.470;2023-06-22T12:16:03;16.53;;;15.77;;
19235;SDS011;9752;54.270;12.470;2023-06-22T12:21:06;16.40;;;15.70;;
19235;SDS011;9752;54.270;12.470;2023-06-22T12:26:08;16.00;;;15.30;;
19235;SDS011;9752;54.270;12.470;2023-06-22T12:31:10;16.90;;;16.10;;
19235;SDS011;9752;54.270;12.470;2023-06-22T12:36:13;16.80;;;16.10;;
19235;SDS011;9752;54.270;12.470;2023-06-22T12:41:14;17.23;;;16.33;;
19235;SDS011;9752;54.270;12.470;2023-06-22T12:46:16;16.67;;;15.90;;
19235;SDS011;9752;54.270;12.470;2023-06-22T12:51:22;16.23;;;15.53;;
19235;SDS011;9752;54.270;12.470;2023-06-22T12:56:24;17.27;;;16.57;;
19235;SDS011;9752;54.270;12.470;2023-06-22T13:01:26;16.83;;;16.13;;
19235;SDS011;9752;54.270;12.470;2023-06-22T13:06:29;16.83;;;16.00;;
19235;SDS011;9752;54.270;12.470;2023-06-22T13:11:30;16.80;;;16.10;;
19235;SDS011;9752;54.270;12.470;2023-06-22T13:16:32;16.00;;;15.40;;
19235;SDS011;9752;54.270;12.470;2023-06-22T13:21:35;15.73;;;15.13;;
19235;SDS011;9752;54.270;12.470;2023-06-22T13:26:37;16.13;;;15.43;;
19235;SDS011;9752;54.270;12.470;2023-06-22T13:31:38;16.20;;;15.57;;
19235;SDS011;9752;54.270;12.470;2023-06-22T13:36:41;15.40;;;14.80;;
19235;SDS011;9752;54.270;12.470;2023-06-22T13:41:43;15.50;;;14.90;;
19235;SDS011;9752;54.270;12.470;2023-06-22T13:46:45;15.93;;;15.33;;
19235;SDS011;9752;54.270;12.470;2023-06-22T13:51:48;15.60;;;15.00;;
19235;SDS011;9752;54.270;12.470;2023-06-22T13:56:50;16.00;;;15.30;;
19235;SDS011;9752;54.270;12.470;2023-06-22T14:01:51;15.47;;;14.87;;
19235;SDS011;9752;54.270;12.470;2023-06-22T14:06:54;15.40;;;14.80;;
19235;SDS011;9752;54.270;12.470;2023-06-22T14:11:57;15.50;;;14.90;;
19235;SDS011;9752;54.270;12.470;2023-06-22T14:16:58;15.23;;;14.63;;
19235;SDS011;9752;54.270;12.470;2023-06-22T14:22:01;15.45;;;14.85;;
19235;SDS011;9752;54.270;12.470;2023-06-22T14:27:03;15.20;;;14.60;;
19235;SDS011;9752;54.270;12.470;2023-06-22T14:32:08;15.35;;;14.75;;
19235;SDS011;9752;54.270;12.470;2023-06-22T14:37:12;16.15;;;15.45;;
19235;SDS011;9752;54.270;12.470;2023-06-22T14:42:14;16.42;;;15.82;;
19235;SDS011;9752;54.270;12.470;2023-06-22T14:47:15;15.57;;;14.98;;
19235;SDS011;9752;54.270;12.470;2023-06-22T14:52:19;15.23;;;14.63;;
19235;SDS011;9752;54.270;12.470;2023-06-22T14:57:21;15.52;;;14.93;;
19235;SDS011;9752;54.270;12.470;2023-06-22T15:02:23;15.60;;;15.00;;
19235;SDS011;9752;54.270;12.470;2023-06-22T15:07:26;15.18;;;14.57;;
19235;SDS011;9752;54.270;12.470;2023-06-22T15:12:28;14.43;;;13.93;;
19235;SDS011;9752;54.270;12.470;2023-06-22T15:17:29;15.65;;;15.05;;
19235;SDS011;9752;54.270;12.470;2023-06-22T15:22:32;15.88;;;15.10;;
19235;SDS011;9752;54.270;12.470;2023-06-22T15:27:34;15.60;;;15.00;;
19235;SDS011;9752;54.270;12.470;2023-06-22T15:32:36;16.00;;;15.40;;
19235;SDS011;9752;54.270;12.470;2023-06-22T15:37:39;15.50;;;14.90;;
19235;SDS011;9752;54.270;12.470;2023-06-22T15:42:40;17.08;;;15.95;;
19235;SDS011;9752;54.270;12.470;2023-06-22T15:47:42;15.57;;;14.88;;
19235;SDS011;9752;54.270;12.470;2023-06-22T15:52:45;16.25;;;15.30;;
19235;SDS011;9752;54.270;12.470;2023-06-22T15:57:50;15.90;;;15.10;;
19235;SDS011;9752;54.270;12.470;2023-06-22T16:02:52;16.27;;;15.32;;
19235;SDS011;9752;54.270;12.470;2023-06-22T16:07:56;16.65;;;15.95;;
19235;SDS011;9752;54.270;12.470;2023-06-22T16:12:57;15.75;;;15.05;;
19235;SDS011;9752;54.270;12.470;2023-06-22T16:17:59;16.35;;;15.55;;
19235;SDS011;9752;54.270;12.470;2023-06-22T16:23:02;15.73;;;15.02;;
19235;SDS011;9752;54.270;12.470;2023-06-22T16:28:04;16.13;;;15.23;;
19235;SDS011;9752;54.270;12.470;2023-06-22T16:33:05;15.88;;;14.85;;
19235;SDS011;9752;54.270;12.470;2023-06-22T16:38:08;15.30;;;14.70;;
19235;SDS011;9752;54.270;12.470;2023-06-22T16:43:10;16.02;;;15.38;;
19235;SDS011;9752;54.270;12.470;2023-06-22T16:48:12;15.27;;;14.68;;
19235;SDS011;9752;54.270;12.470;2023-06-22T16:53:15;15.27;;;14.60;;
19235;SDS011;9752;54.270;12.470;2023-06-22T16:58:17;15.57;;;14.88;;
19235;SDS011;9752;54.270;12.470;2023-06-22T17:03:24;14.65;;;14.05;;
19235;SDS011;9752;54.270;12.470;2023-06-22T17:08:30;16.20;;;15.30;;
19235;SDS011;9752;54.270;12.470;2023-06-22T17:13:33;16.60;;;15.80;;
19235;SDS011;9752;54.270;12.470;2023-06-22T17:18:36;16.20;;;15.30;;
19235;SDS011;9752;54.270;12.470;2023-06-22T17:23:42;16.20;;;15.40;;
19235;SDS011;9752;54.270;12.470;2023-06-22T17:28:48;15.07;;;14.37;;
19235;SDS011;9752;54.270;12.470;2023-06-22T17:33:50;15.90;;;15.20;;
19235;SDS011;9752;54.270;12.470;2023-06-22T17:38:53;16.10;;;15.30;;
19235;SDS011;9752;54.270;12.470;2023-06-22T17:44:00;15.37;;;14.70;;
19235;SDS011;9752;54.270;12.470;2023-06-22T17:49:06;15.20;;;14.52;;
19235;SDS011;9752;54.270;12.470;2023-06-22T17:54:10;15.30;;;14.60;;
19235;SDS011;9752;54.270;12.470;2023-06-22T17:59:12;14.53;;;13.93;;
19235;SDS011;9752;54.270;12.470;2023-06-22T18:04:14;14.87;;;14.17;;
19235;SDS011;9752;54.270;12.470;2023-06-22T18:09:18;13.83;;;13.23;;
19235;SDS011;9752;54.270;12.470;2023-06-22T18:14:20;14.83;;;14.13;;
19235;SDS011;9752;54.270;12.470;2023-06-22T18:19:21;14.80;;;14.00;;
19235;SDS011;9752;54.270;12.470;2023-06-22T18:24:25;14.67;;;13.97;;
19235;SDS011;9752;54.270;12.470;2023-06-22T18:29:29;14.80;;;14.10;;
19235;SDS011;9752;54.270;12.470;2023-06-22T18:34:31;14.43;;;13.50;;
19235;SDS011;9752;54.270;12.470;2023-06-22T18:39:35;14.33;;;13.73;;
19235;SDS011;9752;54.270;12.470;2023-06-22T18:44:39;14.07;;;13.47;;
19235;SDS011;9752;54.270;12.470;2023-06-22T18:49:45;13.70;;;13.10;;
19235;SDS011;9752;54.270;12.470;2023-06-22T18:54:50;13.67;;;12.97;;
19235;SDS011;9752;54.270;12.470;2023-06-22T18:59:58;13.27;;;12.67;;
19235;SDS011;9752;54.270;12.470;2023-06-22T19:05:06;14.47;;;13.77;;
19235;SDS011;9752;54.270;12.470;2023-06-22T19:10:21;14.57;;;13.97;;
19235;SDS011;9752;54.270;12.470;2023-06-22T19:15:29;13.20;;;12.60;;
19235;SDS011;9752;54.270;12.470;2023-06-22T19:20:33;13.90;;;13.30;;
19235;SDS011;9752;54.270;12.470;2023-06-22T19:25:36;13.00;;;12.40;;
19235;SDS011;9752;54.270;12.470;2023-06-22T19:30:39;12.73;;;12.13;;
19235;SDS011;9752;54.270;12.470;2023-06-22T19:35:42;14.27;;;13.67;;
19235;SDS011;9752;54.270;12.470;2023-06-22T19:40:45;14.33;;;13.73;;
19235;SDS011;9752;54.270;12.470;2023-06-22T19:45:47;14.10;;;13.50;;
19235;SDS011;9752;54.270;12.470;2023-06-22T19:50:49;15.60;;;14.90;;
19235;SDS011;9752;54.270;12.470;2023-06-22T19:55:51;15.27;;;14.43;;
19235;SDS011;9752;54.270;12.470;2023-06-22T20:00:54;16.27;;;15.23;;
19235;SDS011;9752;54.270;12.470;2023-06-22T20:06:06;17.27;;;16.37;;
19235;SDS011;9752;54.270;12.470;2023-06-22T20:11:10;17.90;;;17.10;;
19235;SDS011;9752;54.270;12.470;2023-06-22T20:16:12;17.70;;;16.80;;
19235;SDS011;9752;54.270;12.470;2023-06-22T20:21:14;17.80;;;17.03;;
19235;SDS011;9752;54.270;12.470;2023-06-22T20:26:17;18.30;;;17.50;;
19235;SDS011;9752;54.270;12.470;2023-06-22T20:31:19;18.60;;;17.80;;
19235;SDS011;9752;54.270;12.470;2023-06-22T20:36:23;18.27;;;17.37;;
19235;SDS011;9752;54.270;12.470;2023-06-22T20:41:26;18.63;;;17.63;;
19235;SDS011;9752;54.270;12.470;2023-06-22T20:46:29;16.03;;;15.13;;
19235;SDS011;9752;54.270;12.470;2023-06-22T20:51:31;15.37;;;14.07;;
19235;SDS011;9752;54.270;12.470;2023-06-22T20:56:34;13.70;;;12.63;;
19235;SDS011;9752;54.270;12.470;2023-06-22T21:01:36;12.63;;;11.93;;
19235;SDS011;9752;54.270;12.470;2023-06-22T21:06:37;11.57;;;10.77;;
19235;SDS011;9752;54.270;12.470;2023-06-22T21:11:40;11.20;;;10.50;;
19235;SDS011;9752;54.270;12.470;2023-06-22T21:16:42;10.80;;;10.20;;
19235;SDS011;9752;54.270;12.470;2023-06-22T21:21:44;11.03;;;10.20;;
19235;SDS011;9752;54.270;12.470;2023-06-22T21:26:47;11.90;;;11.00;;
19235;SDS011;9752;54.270;12.470;2023-06-22T21:31:49;11.00;;;10.27;;
19235;SDS011;9752;54.270;12.470;2023-06-22T21:36:51;11.23;;;10.43;;
19235;SDS011;9752;54.270;12.470;2023-06-22T21:41:54;10.83;;;10.13;;
19235;SDS011;9752;54.270;12.470;2023-06-22T21:46:55;10.93;;;10.13;;
19235;SDS011;9752;54.270;12.470;2023-06-22T21:51:57;10.80;;;9.97;;
19235;SDS011;9752;54.270;12.470;2023-06-22T21:57:00;10.57;;;9.77;;
19235;SDS011;9752;54.270;12.470;2023-06-22T22:02:02;10.63;;;9.83;;
19235;SDS011;9752;54.270;12.470;2023-06-22T22:07:04;10.77;;;9.97;;
19235;SDS011;9752;54.270;12.470;2023-06-22T22:12:08;10.53;;;9.73;;
19235;SDS011;9752;54.270;12.470;2023-06-22T22:17:10;10.70;;;10.10;;
19235;SDS011;9752;54.270;12.470;2023-06-22T22:22:11;10.37;;;9.70;;
19235;SDS011;9752;54.270;12.470;2023-06-22T22:27:15;11.07;;;10.30;;
19235;SDS011;9752;54.270;12.470;2023-06-22T22:32:16;9.70;;;9.00;;
19235;SDS011;9752;54.270;12.470;2023-06-22T22:37:18;9.80;;;9.00;;
19235;SDS011;9752;54.270;12.470;2023-06-22T22:42:21;9.93;;;8.70;;
19235;SDS011;9752;54.270;12.470;2023-06-22T22:47:22;9.90;;;9.00;;
19235;SDS011;9752;54.270;12.470;2023-06-22T22:52:24;8.97;;;8.17;;
19235;SDS011;9752;54.270;12.470;2023-06-22T22:57:30;8.53;;;8.03;;
19235;SDS011;9752;54.270;12.470;2023-06-22T23:02:31;9.30;;;8.47;;
19235;SDS011;9752;54.270;12.470;2023-06-22T23:07:33;8.67;;;7.97;;
19235;SDS011;9752;54.270;12.470;2023-06-22T23:12:36;9.83;;;9.00;;
19235;SDS011;9752;54.270;12.470;2023-06-22T23:17:38;8.80;;;8.10;;
19235;SDS011;9752;54.270;12.470;2023-06-22T23:22:39;10.10;;;9.30;;
19235;SDS011;9752;54.270;12.470;2023-06-22T23:27:42;10.00;;;9.20;;
19235;SDS011;9752;54.270;12.470;2023-06-22T23:32:44;8.67;;;7.87;;
19235;SDS011;9752;54.270;12.470;2023-06-22T23:37:46;9.10;;;8.30;;
19235;SDS011;9752;54.270;12.470;2023-06-22T23:42:49;8.63;;;7.97;;
19235;SDS011;9752;54.270;12.470;2023-06-22T23:47:51;8.60;;;7.90;;
19235;SDS011;9752;54.270;12.470;2023-06-22T23:52:53;9.80;;;8.80;;
19235;SDS011;9752;54.270;12.470;2023-06-22T23:57:56;9.00;;;8.20;;
